地図

経路データ

SID SEASON NUMBER BASIN SUBBASIN NAME ISO_TIME NATURE LAT LON WMO_WIND WMO_PRES WMO_AGENCY TRACK_TYPE DIST2LAND LANDFALL IFLAG USA_AGENCY USA_ATCF_ID USA_LAT USA_LON USA_RECORD USA_STATUS USA_WIND USA_PRES USA_SSHS USA_R34_NE USA_R34_SE USA_R34_SW USA_R34_NW USA_R50_NE USA_R50_SE USA_R50_SW USA_R50_NW USA_R64_NE USA_R64_SE USA_R64_SW USA_R64_NW USA_POCI USA_ROCI USA_RMW USA_EYE TOKYO_LAT TOKYO_LON TOKYO_GRADE TOKYO_WIND TOKYO_PRES TOKYO_R50_DIR TOKYO_R50_LONG TOKYO_R50_SHORT TOKYO_R30_DIR TOKYO_R30_LONG TOKYO_R30_SHORT TOKYO_LAND CMA_LAT CMA_LON CMA_CAT CMA_WIND CMA_PRES HKO_LAT HKO_LON HKO_CAT HKO_WIND HKO_PRES NEWDELHI_LAT NEWDELHI_LON NEWDELHI_GRADE NEWDELHI_WIND NEWDELHI_PRES NEWDELHI_CI NEWDELHI_DP NEWDELHI_POCI REUNION_LAT REUNION_LON REUNION_TYPE REUNION_WIND REUNION_PRES REUNION_TNUM REUNION_CI REUNION_RMW REUNION_R34_NE REUNION_R34_SE REUNION_R34_SW REUNION_R34_NW REUNION_R50_NE REUNION_R50_SE REUNION_R50_SW REUNION_R50_NW REUNION_R64_NE REUNION_R64_SE REUNION_R64_SW REUNION_R64_NW BOM_LAT BOM_LON BOM_TYPE BOM_WIND BOM_PRES BOM_TNUM BOM_CI BOM_RMW BOM_R34_NE BOM_R34_SE BOM_R34_SW BOM_R34_NW BOM_R50_NE BOM_R50_SE BOM_R50_SW BOM_R50_NW BOM_R64_NE BOM_R64_SE BOM_R64_SW BOM_R64_NW BOM_ROCI BOM_POCI BOM_EYE BOM_POS_METHOD BOM_PRES_METHOD NADI_LAT NADI_LON NADI_CAT NADI_WIND NADI_PRES WELLINGTON_LAT WELLINGTON_LON WELLINGTON_WIND WELLINGTON_PRES DS824_LAT DS824_LON DS824_STAGE DS824_WIND DS824_PRES TD9636_LAT TD9636_LON TD9636_STAGE TD9636_WIND TD9636_PRES TD9635_LAT TD9635_LON TD9635_WIND TD9635_PRES TD9635_ROCI NEUMANN_LAT NEUMANN_LON NEUMANN_CLASS NEUMANN_WIND NEUMANN_PRES MLC_LAT MLC_LON MLC_CLASS MLC_WIND MLC_PRES USA_GUST BOM_GUST BOM_GUST_PER REUNION_GUST REUNION_GUST_PER USA_SEAHGT USA_SEARAD_NE USA_SEARAD_SE USA_SEARAD_SW USA_SEARAD_NW STORM_SPEED STORM_DIR
1963298N15302 1963 107 NA NA HELENA 1963-10-25 06:00:00 TS 14.8000 -58.3000 25 hurdat_atl main 544 537 O_____________ hurdat_atl AL091963 14.8000 -58.3000 TD 25 -1 6 289
1963298N15302 1963 107 NA NA HELENA 1963-10-25 09:00:00 TS 14.9001 -58.5999 main 537 532 P_____________ AL091963 14.9001 -58.5999 TD 27 -1 6 289
1963298N15302 1963 107 NA NA HELENA 1963-10-25 12:00:00 TS 15.0000 -58.9000 30 hurdat_atl main 532 523 O_____________ hurdat_atl AL091963 15.0000 -58.9000 TD 30 -1 6 289
1963298N15302 1963 107 NA NA HELENA 1963-10-25 15:00:00 TS 15.1000 -59.2000 main 529 526 P_____________ AL091963 15.1000 -59.2000 TD 35 0 6 289
1963298N15302 1963 107 NA NA HELENA 1963-10-25 18:00:00 TS 15.2000 -59.5000 40 1005 hurdat_atl main 529 526 O_____________ hurdat_atl AL091963 15.2000 -59.5000 TS 40 1005 0 6 289
1963298N15302 1963 107 NA NA HELENA 1963-10-25 21:00:00 TS 15.3075 -59.8075 main 531 528 P_____________ AL091963 15.3075 -59.8075 TS 40 0 6 289
1963298N15302 1963 107 NA CS HELENA 1963-10-26 00:00:00 TS 15.4000 -60.1000 40 hurdat_atl main 535 531 O_____________ hurdat_atl AL091963 15.4000 -60.1000 TS 40 0 5 286
1963298N15302 1963 107 NA CS HELENA 1963-10-26 03:00:00 TS 15.4574 -60.3501 main 541 539 P_____________ AL091963 15.4574 -60.3501 TS 40 0 5 282
1963298N15302 1963 107 NA CS HELENA 1963-10-26 06:00:00 TS 15.5000 -60.6000 40 hurdat_atl main 539 537 O_____________ hurdat_atl AL091963 15.5000 -60.6000 TS 40 0 5 280
1963298N15302 1963 107 NA CS HELENA 1963-10-26 09:00:00 TS 15.5500 -60.9075 main 548 548 P_____________ AL091963 15.5500 -60.9075 TS 40 0 6 280
1963298N15302 1963 107 NA CS HELENA 1963-10-26 12:00:00 TS 15.6000 -61.2000 40 1004 hurdat_atl main 548 533 O_____________ hurdat_atl AL091963 15.6000 -61.2000 TS 40 1004 0 5 281
1963298N15302 1963 107 NA CS HELENA 1963-10-26 15:00:00 TS 15.6500 -61.4225 main 533 509 P_____________ AL091963 15.6500 -61.4225 TS 40 1004 0 4 285
1963298N15302 1963 107 NA CS HELENA 1963-10-26 18:00:00 TS 15.7000 -61.6000 40 1005 hurdat_atl main 509 491 O_____________ hurdat_atl AL091963 15.7000 -61.6000 TS 40 1005 0 3 287
1963298N15302 1963 107 NA CS HELENA 1963-10-26 21:00:00 TS 15.7500 -61.7650 main 491 476 P_____________ AL091963 15.7500 -61.7650 TS 37 1005 0 3 289
1963298N15302 1963 107 NA CS HELENA 1963-10-27 00:00:00 TS 15.8000 -61.9000 35 1006 hurdat_atl main 476 467 O_____________ hurdat_atl AL091963 15.8000 -61.9000 TS 35 1006 0 3 291
1963298N15302 1963 107 NA CS HELENA 1963-10-27 03:00:00 TS 15.8425 -62.0150 main 467 452 P_____________ AL091963 15.8425 -62.0150 TS 35 0 2 297
1963298N15302 1963 107 NA CS HELENA 1963-10-27 06:00:00 TS 15.9000 -62.1000 35 hurdat_atl main 452 437 O_____________ hurdat_atl AL091963 15.9000 -62.1000 TS 35 0 2 313
1963298N15302 1963 107 NA CS HELENA 1963-10-27 09:00:00 TS 15.9775 -62.1650 main 437 431 P_____________ AL091963 15.9775 -62.1650 TS 37 0 2 333
1963298N15302 1963 107 NA CS HELENA 1963-10-27 12:00:00 TS 16.1000 -62.2000 40 hurdat_atl main 431 419 O_____________ hurdat_atl AL091963 16.1000 -62.2000 TS 40 0 3 351
1963298N15302 1963 107 NA CS HELENA 1963-10-27 15:00:00 TS 16.2850 -62.2225 main 419 407 P_____________ AL091963 16.2850 -62.2225 TS 42 0 4 0
1963298N15302 1963 107 NA CS HELENA 1963-10-27 18:00:00 TS 16.5000 -62.2000 45 1002 hurdat_atl main 407 397 O_____________ hurdat_atl AL091963 16.5000 -62.2000 TS 45 1002 0 4 7
1963298N15302 1963 107 NA CS HELENA 1963-10-27 21:00:00 TS 16.7116 -62.1595 main 397 397 P_____________ AL091963 16.7116 -62.1595 TS 45 0 4 25
1963298N15302 1963 107 NA CS HELENA 1963-10-28 00:00:00 TS 16.9000 -62.0000 45 hurdat_atl main 408 408 O_____________ hurdat_atl AL091963 16.9000 -62.0000 TS 45 0 5 50
1963298N15302 1963 107 NA CS HELENA 1963-10-28 02:00:00 TS 17.0000 -61.8000 45 hurdat_atl main 424 424 O_____________ hurdat_atl AL091963 17.0000 -61.8000 L TS 45 0 7 62
1963298N15302 1963 107 NA CS HELENA 1963-10-28 03:00:00 TS 17.0518 -61.6982 main 431 431 P_____________ AL091963 17.0518 -61.6982 TS 43 0 6 62
1963298N15302 1963 107 NA CS HELENA 1963-10-28 06:00:00 TS 17.2000 -61.4000 40 hurdat_atl main 458 458 O_____________ hurdat_atl AL091963 17.2000 -61.4000 TS 40 0 6 66
1963298N15302 1963 107 NA CS HELENA 1963-10-28 09:00:00 TS 17.2949 -61.1337 main 487 487 P_____________ AL091963 17.2949 -61.1337 TS 37 0 5 67
1963298N15302 1963 107 NA CS HELENA 1963-10-28 12:00:00 TS 17.4000 -60.9000 35 1007 hurdat_atl main 505 505 O_____________ hurdat_atl AL091963 17.4000 -60.9000 TS 35 1007 0 5 58
1963298N15302 1963 107 NA NA HELENA 1963-10-28 15:00:00 TS 17.5550 -60.6924 main 522 522 P_____________ AL091963 17.5550 -60.6924 TS 35 0 6 44
1963298N15302 1963 107 NA NA HELENA 1963-10-28 18:00:00 TS 17.8000 -60.5000 35 hurdat_atl main 541 540 O_____________ hurdat_atl AL091963 17.8000 -60.5000 TS 35 0 7 30
1963298N15302 1963 107 NA NA HELENA 1963-10-28 21:00:00 TS 18.1774 -60.3149 main 559 559 P_____________ AL091963 18.1774 -60.3149 TS 32 -1 9 25
1963298N15302 1963 107 NA NA HELENA 1963-10-29 00:00:00 TS 18.6000 -60.1000 30 hurdat_atl main 580 580 O_____________ hurdat_atl AL091963 18.6000 -60.1000 TD 30 -1 9 31
1963298N15302 1963 107 NA NA HELENA 1963-10-29 03:00:00 TS 18.9575 -59.8224 main 614 614 P_____________ AL091963 18.9575 -59.8224 TD 27 -1 9 39
1963298N15302 1963 107 NA NA HELENA 1963-10-29 06:00:00 TS 19.3000 -59.5000 25 hurdat_atl main 649 649 O_____________ hurdat_atl AL091963 19.3000 -59.5000 TD 25 -1 9 42
1963298N15302 1963 107 NA NA HELENA 1963-10-29 09:00:00 TS 19.6424 -59.1648 main 686 686 P_____________ AL091963 19.6424 -59.1648 TD 25 -1 10 43
1963298N15302 1963 107 NA NA HELENA 1963-10-29 12:00:00 TS 20.0000 -58.8000 25 hurdat_atl main 736 736 O_____________ hurdat_atl AL091963 20.0000 -58.8000 TD 25 -1 10 42
1963298N15302 1963 107 NA NA HELENA 1963-10-29 15:00:00 TS 20.3996 -58.4447 main 787 787 P_____________ AL091963 20.3996 -58.4447 TD 25 -1 11 43
1963298N15302 1963 107 NA NA HELENA 1963-10-29 18:00:00 TS 20.8000 -58.0000 25 hurdat_atl main 840 840 O_____________ hurdat_atl AL091963 20.8000 -58.0000 TD 25 -1 12 53
1963298N15302 1963 107 NA NA HELENA 1963-10-29 21:00:00 TS 21.1500 -57.3947 main 913 913 P_____________ AL091963 21.1500 -57.3947 TD 25 -1 14 60
1963298N15302 1963 107 NA NA HELENA 1963-10-30 00:00:00 TS 21.5000 -56.7000 25 hurdat_atl main 992 992 O_____________ hurdat_atl AL091963 21.5000 -56.7000 TD 25 -1 15 60
1963298N15302 1963 107 NA NA HELENA 1963-10-30 03:00:00 TS 21.8999 -55.9999 main 1075 1075 P_____________ AL091963 21.8999 -55.9999 TD 25 -1 15 58
1963298N15302 1963 107 NA NA HELENA 1963-10-30 06:00:00 TS 22.3000 -55.3000 25 hurdat_atl main 1158 1158 O_____________ hurdat_atl AL091963 22.3000 -55.3000 TD 25 -1 15 59
1963298N15302 1963 107 NA NA HELENA 1963-10-30 09:00:00 TS 22.6629 -54.6379 main 1241 1241 P_____________ AL091963 22.6629 -54.6379 TD 25 -1 14 60
1963298N15302 1963 107 NA NA HELENA 1963-10-30 12:00:00 TS 23.0000 -54.0000 25 hurdat_atl main 1310 O_____________ hurdat_atl AL091963 23.0000 -54.0000 TD 25 -1 14 60

IBTrACS Databaseについて

本データベースは、米国NOAAが公開する1842年以降の世界の熱帯低気圧のベストトラックデータアーカイブInternational Best Track Archive for Climate Stewardship (IBTrACS)を、ウェブで閲覧しやすい形式に変換したものです。

最終更新日:2021-12-01